Flight Track Log - Related Links

Times and Time Zones

All times are in EDT time to prevent confusion due to time zone crossing. See the CFS657 flight status page for this flight to view local times or setup timezone preferences in your user account.

Time Position Orientation Groundspeed Altitude Reporting Facility
EDT Latitude Longitude Course Direction KTS MPH feet Rate Location/Type
Mon 08:10:58 PM 48.1331 -123.4117 152° Southeast 140 161 2,600  Level Seattle Center
Mon 08:11:58 PM 48.1336 -123.3517 89° East 135 155 3,800 992 Climbing Seattle Center
Mon 08:12:59 PM 48.1322 -123.2928 92° East 141 162 4,600 590 Climbing Seattle Center
Mon 08:14:00 PM 48.1150 -123.2325 113° Southeast 164 189 5,000 149 Climbing Seattle Center
Mon 08:15:00 PM 48.1014 -123.1606 106° East 184 212 4,900 -88 Descending Seattle Center
Mon 08:15:08 PM 48.0975 -123.1492 117° Southeast 173 199 4,900  Level Seattle Center
Mon 08:16:00 PM 47.9492 -123.1916 152° Southeast  Level Estimated
Mon 08:16:09 PM 48.0842 -123.0794 106° East 173 199 4,900  Level Seattle Center
Mon 08:17:01 PM 48.0753 -123.0225 103° East 170 196 5,000  Climbing Seattle Center
Mon 08:17:10 PM 48.0761 -123.0122 83° East 168 193 4,900  Descending Seattle Center
Mon 08:18:02 PM 48.0867 -122.9531 75° East 170 196 5,000  Climbing Seattle Center
Mon 08:18:11 PM 48.0883 -122.9431 76° East 171 197 4,900  Descending Seattle Center
Mon 08:19:03 PM 48.0833 -122.8883 98° East 167 192 5,000  Climbing Seattle Center
Mon 08:19:12 PM 48.0808 -122.8819 120° Southeast 175 201 4,900  Descending Seattle Center
Mon 08:20:03 PM 48.0456 -122.8533 152° Southeast 158 182 5,000 105 Climbing Seattle Center
Mon 08:20:09 PM 48.0425 -122.8494 140° Southeast 158 182 5,000  Level Seattle Center
Mon 08:20:13 PM 48.0431 -122.8500 326° Northwest 157 181 5,000  Level Seattle Center
Mon 08:20:46 PM 48.0206 -122.8317 151° Southeast 160 184 5,000 98 Level Seattle Center
Mon 08:21:14 PM 48.0039 -122.8150 146° Southeast 163 188 5,100 98 Climbing Seattle Center
Mon 08:21:47 PM 47.9803 -122.7942 149° Southeast 157 181 5,100  Level Seattle Center
Mon 08:22:15 PM 47.9669 -122.7831 151° Southeast 155 178 5,100  Level Seattle Center
Mon 08:23:00 PM 47.9353 -122.7558 150° Southeast 158 182 5,100  Level Seattle Center
Mon 08:23:15 PM 47.9289 -122.7506 151° Southeast 157 181 5,100  Level Seattle Center
Mon 08:23:49 PM 47.9039 -122.7269 148° Southeast 158 182 5,100  Level Seattle Center
Mon 08:24:16 PM 47.8917 -122.7158 149° Southeast 158 182 5,100  Level Seattle Center
Mon 08:24:55 PM 47.8636 -122.6897 148° Southeast 156 180 5,100  Level Seattle Center
Mon 08:25:17 PM 47.8550 -122.6833 154° Southeast 154 177 5,100  Level Seattle Center
Mon 08:25:56 PM 47.8322 -122.6442 131° Southeast 176 203 5,100 -240 Level Seattle Center
Mon 08:26:57 PM 47.8175 -122.5667 106° East 190 219 4,700 -361 Descending Seattle Center
Mon 08:27:19 PM 47.8164 -122.5544 98° East 181 208 4,600 -492 Descending Seattle Center
Mon 08:27:58 PM 47.8058 -122.4939 105° East 183 211 4,200 -590 Descending Seattle Center
Mon 08:28:20 PM 47.8008 -122.4642 104° East 186 214 4,000 -90 Descending Seattle Center
Mon 08:29:05 PM 47.7947 -122.4142 100° East 178 205 4,100  Climbing Seattle Center
Mon 08:29:21 PM 47.7908 -122.3953 107° East 175 201 4,000  Descending Seattle Center
Mon 08:30:00 PM 47.7731 -122.3636 130° Southeast 166 191 4,100  Climbing Seattle Center
Mon 08:30:22 PM 47.7575 -122.3492 148° Southeast 173 199 4,000 -33 Descending Seattle Center
Mon 08:32:00 PM 47.7254 -122.4522 245° Southwest  Level FlightAware Approximate
Mon 08:33:02 PM 47.6417 -122.3178 146° Southeast 157 181 4,000  Level Seattle Center
Mon 08:33:25 PM 47.6289 -122.3158 174° South 160 184 3,900 -1,012 Descending Seattle Center
Mon 08:34:25 PM 47.5769 -122.3161 180° South 172 198 2,600 -1,030 Descending Seattle Center
Mon 08:35:04 PM 47.5508 -122.3189 184° South 165 190 2,200 -787 Descending Seattle Center
Mon 08:35:26 PM 47.5331 -122.3175 177° South 161 185 1,800 -787 Descending Seattle Center
Mon 08:36:05 PM 47.5086 -122.3192 183° South 146 168 1,400 -689 Descending Seattle Center
Mon 08:36:27 PM 47.4936 -122.3169 174° South 147 169 1,100 -735 Descending Seattle Center
Mon 08:36:54 PM 47.4775 -122.3197 187° South 128 147 800 -590 Descending Seattle Center
Mon 08:37:28 PM 47.4614 -122.3183 177° South 123 142 500 -253 Descending Seattle Center
Mon 08:38:29 PM 47.4589 -122.3161 149° Southeast 42 48 400 -98 Descending Seattle Center
Mon 08:39:00 PM 47.4473 -122.3140 146° Southeast  Level FlightAware Approximate

Login

Don't have an account? Register now (free) for customized features, flight alerts, and more!